sensor_id;sensor_type;location;lat;lon;timestamp;P1;durP1;ratioP1;P2;durP2;ratioP2
68475;SDS011;55464;48.266;14.188;2023-12-20T00:00:54;8.35;;;4.05;;
68475;SDS011;55464;48.266;14.188;2023-12-20T00:03:19;6.40;;;4.47;;
68475;SDS011;55464;48.266;14.188;2023-12-20T00:05:45;6.20;;;4.38;;
68475;SDS011;55464;48.266;14.188;2023-12-20T00:08:11;5.88;;;4.28;;
68475;SDS011;55464;48.266;14.188;2023-12-20T00:10:36;6.72;;;4.90;;
68475;SDS011;55464;48.266;14.188;2023-12-20T00:13:01;6.10;;;4.72;;
68475;SDS011;55464;48.266;14.188;2023-12-20T00:15:27;8.35;;;5.28;;
68475;SDS011;55464;48.266;14.188;2023-12-20T00:17:52;9.05;;;5.70;;
68475;SDS011;55464;48.266;14.188;2023-12-20T00:20:18;10.52;;;5.93;;
68475;SDS011;55464;48.266;14.188;2023-12-20T00:22:43;7.00;;;5.43;;
68475;SDS011;55464;48.266;14.188;2023-12-20T00:25:09;9.90;;;5.95;;
68475;SDS011;55464;48.266;14.188;2023-12-20T00:27:34;5.30;;;4.65;;
68475;SDS011;55464;48.266;14.188;2023-12-20T00:29:59;6.00;;;4.50;;
68475;SDS011;55464;48.266;14.188;2023-12-20T00:32:25;7.15;;;4.78;;
68475;SDS011;55464;48.266;14.188;2023-12-20T00:34:50;6.47;;;5.10;;
68475;SDS011;55464;48.266;14.188;2023-12-20T00:37:16;8.52;;;5.13;;
68475;SDS011;55464;48.266;14.188;2023-12-20T00:39:41;7.32;;;5.30;;
68475;SDS011;55464;48.266;14.188;2023-12-20T00:42:07;9.07;;;5.63;;
68475;SDS011;55464;48.266;14.188;2023-12-20T00:44:32;8.10;;;5.47;;
68475;SDS011;55464;48.266;14.188;2023-12-20T00:46:58;7.57;;;6.10;;
68475;SDS011;55464;48.266;14.188;2023-12-20T00:49:23;11.75;;;7.50;;
68475;SDS011;55464;48.266;14.188;2023-12-20T00:51:48;11.55;;;8.88;;
68475;SDS011;55464;48.266;14.188;2023-12-20T00:54:15;15.02;;;9.63;;
68475;SDS011;55464;48.266;14.188;2023-12-20T00:56:41;12.73;;;8.60;;
68475;SDS011;55464;48.266;14.188;2023-12-20T00:59:06;11.70;;;8.15;;
68475;SDS011;55464;48.266;14.188;2023-12-20T01:01:32;15.25;;;8.73;;
68475;SDS011;55464;48.266;14.188;2023-12-20T01:03:58;14.60;;;9.07;;
68475;SDS011;55464;48.266;14.188;2023-12-20T01:06:23;14.85;;;9.38;;
68475;SDS011;55464;48.266;14.188;2023-12-20T01:08:49;13.20;;;9.00;;
68475;SDS011;55464;48.266;14.188;2023-12-20T01:11:14;14.23;;;8.95;;
68475;SDS011;55464;48.266;14.188;2023-12-20T01:13:40;13.18;;;7.90;;
68475;SDS011;55464;48.266;14.188;2023-12-20T01:16:05;13.82;;;7.90;;
68475;SDS011;55464;48.266;14.188;2023-12-20T01:18:31;12.25;;;6.80;;
68475;SDS011;55464;48.266;14.188;2023-12-20T01:20:56;7.82;;;5.97;;
68475;SDS011;55464;48.266;14.188;2023-12-20T01:23:27;7.55;;;5.82;;
68475;SDS011;55464;48.266;14.188;2023-12-20T01:25:52;8.32;;;5.60;;
68475;SDS011;55464;48.266;14.188;2023-12-20T01:28:19;8.23;;;6.00;;
68475;SDS011;55464;48.266;14.188;2023-12-20T01:30:44;9.32;;;6.43;;
68475;SDS011;55464;48.266;14.188;2023-12-20T01:33:10;9.32;;;5.80;;
68475;SDS011;55464;48.266;14.188;2023-12-20T01:35:35;9.93;;;6.03;;
68475;SDS011;55464;48.266;14.188;2023-12-20T01:38:01;9.90;;;5.35;;
68475;SDS011;55464;48.266;14.188;2023-12-20T01:40:26;9.38;;;5.60;;
68475;SDS011;55464;48.266;14.188;2023-12-20T01:45:46;8.88;;;5.80;;
68475;SDS011;55464;48.266;14.188;2023-12-20T01:48:12;12.40;;;5.88;;
68475;SDS011;55464;48.266;14.188;2023-12-20T01:50:40;10.82;;;6.70;;
68475;SDS011;55464;48.266;14.188;2023-12-20T01:53:08;9.48;;;6.32;;
68475;SDS011;55464;48.266;14.188;2023-12-20T01:55:36;9.90;;;6.20;;
68475;SDS011;55464;48.266;14.188;2023-12-20T01:58:04;11.27;;;7.40;;
68475;SDS011;55464;48.266;14.188;2023-12-20T02:00:30;11.70;;;7.10;;
68475;SDS011;55464;48.266;14.188;2023-12-20T02:02:56;13.48;;;7.22;;
68475;SDS011;55464;48.266;14.188;2023-12-20T02:05:26;11.88;;;7.03;;
68475;SDS011;55464;48.266;14.188;2023-12-20T02:07:53;11.35;;;7.10;;
68475;SDS011;55464;48.266;14.188;2023-12-20T02:10:18;10.52;;;6.88;;
68475;SDS011;55464;48.266;14.188;2023-12-20T02:12:44;11.93;;;7.13;;
68475;SDS011;55464;48.266;14.188;2023-12-20T02:15:09;11.07;;;7.30;;
68475;SDS011;55464;48.266;14.188;2023-12-20T02:17:35;10.32;;;6.78;;
68475;SDS011;55464;48.266;14.188;2023-12-20T02:20:01;12.18;;;6.88;;
68475;SDS011;55464;48.266;14.188;2023-12-20T02:22:27;11.48;;;6.70;;
68475;SDS011;55464;48.266;14.188;2023-12-20T02:24:53;8.77;;;6.15;;
68475;SDS011;55464;48.266;14.188;2023-12-20T02:27:18;12.35;;;6.95;;
68475;SDS011;55464;48.266;14.188;2023-12-20T02:29:45;10.93;;;6.40;;
68475;SDS011;55464;48.266;14.188;2023-12-20T02:32:13;9.25;;;6.57;;
68475;SDS011;55464;48.266;14.188;2023-12-20T02:34:38;11.35;;;7.03;;
68475;SDS011;55464;48.266;14.188;2023-12-20T02:37:04;11.18;;;7.10;;
68475;SDS011;55464;48.266;14.188;2023-12-20T02:39:29;15.18;;;8.25;;
68475;SDS011;55464;48.266;14.188;2023-12-20T02:41:55;14.02;;;6.60;;
68475;SDS011;55464;48.266;14.188;2023-12-20T02:44:20;10.48;;;6.70;;
68475;SDS011;55464;48.266;14.188;2023-12-20T02:46:46;9.50;;;6.13;;
68475;SDS011;55464;48.266;14.188;2023-12-20T02:49:11;14.15;;;6.90;;
68475;SDS011;55464;48.266;14.188;2023-12-20T02:51:37;10.40;;;7.10;;
68475;SDS011;55464;48.266;14.188;2023-12-20T02:54:05;11.13;;;6.60;;
68475;SDS011;55464;48.266;14.188;2023-12-20T02:56:32;9.25;;;6.13;;
68475;SDS011;55464;48.266;14.188;2023-12-20T02:58:57;10.77;;;6.68;;
68475;SDS011;55464;48.266;14.188;2023-12-20T03:01:23;9.68;;;6.18;;
68475;SDS011;55464;48.266;14.188;2023-12-20T03:03:48;10.15;;;6.70;;
68475;SDS011;55464;48.266;14.188;2023-12-20T03:06:20;9.20;;;6.55;;
68475;SDS011;55464;48.266;14.188;2023-12-20T03:08:45;9.70;;;6.20;;
68475;SDS011;55464;48.266;14.188;2023-12-20T03:11:11;10.50;;;6.45;;
68475;SDS011;55464;48.266;14.188;2023-12-20T03:13:36;10.32;;;7.00;;
68475;SDS011;55464;48.266;14.188;2023-12-20T03:16:12;12.95;;;6.57;;
68475;SDS011;55464;48.266;14.188;2023-12-20T03:18:38;8.95;;;6.13;;
68475;SDS011;55464;48.266;14.188;2023-12-20T03:21:04;12.23;;;7.10;;
68475;SDS011;55464;48.266;14.188;2023-12-20T03:23:30;10.38;;;6.35;;
68475;SDS011;55464;48.266;14.188;2023-12-20T03:25:57;10.52;;;6.40;;
68475;SDS011;55464;48.266;14.188;2023-12-20T03:28:23;9.05;;;6.43;;
68475;SDS011;55464;48.266;14.188;2023-12-20T03:30:49;10.25;;;7.03;;
68475;SDS011;55464;48.266;14.188;2023-12-20T03:33:14;10.43;;;6.72;;
68475;SDS011;55464;48.266;14.188;2023-12-20T03:35:40;11.80;;;7.00;;
68475;SDS011;55464;48.266;14.188;2023-12-20T03:38:05;9.32;;;6.35;;
68475;SDS011;55464;48.266;14.188;2023-12-20T03:40:31;8.70;;;6.13;;
68475;SDS011;55464;48.266;14.188;2023-12-20T03:42:56;8.18;;;5.80;;
68475;SDS011;55464;48.266;14.188;2023-12-20T03:45:21;9.85;;;6.30;;
68475;SDS011;55464;48.266;14.188;2023-12-20T03:47:47;8.75;;;6.15;;
68475;SDS011;55464;48.266;14.188;2023-12-20T03:50:13;10.23;;;6.40;;
68475;SDS011;55464;48.266;14.188;2023-12-20T03:52:39;11.68;;;6.05;;
68475;SDS011;55464;48.266;14.188;2023-12-20T03:55:04;10.38;;;6.30;;
68475;SDS011;55464;48.266;14.188;2023-12-20T03:57:30;9.77;;;6.50;;
68475;SDS011;55464;48.266;14.188;2023-12-20T03:59:55;7.55;;;6.00;;
68475;SDS011;55464;48.266;14.188;2023-12-20T04:02:21;8.73;;;5.95;;
68475;SDS011;55464;48.266;14.188;2023-12-20T04:04:46;10.50;;;6.65;;
68475;SDS011;55464;48.266;14.188;2023-12-20T04:07:12;9.82;;;6.72;;
68475;SDS011;55464;48.266;14.188;2023-12-20T04:09:37;10.00;;;6.25;;
68475;SDS011;55464;48.266;14.188;2023-12-20T04:12:03;7.35;;;5.60;;
68475;SDS011;55464;48.266;14.188;2023-12-20T04:14:30;8.25;;;5.78;;
68475;SDS011;55464;48.266;14.188;2023-12-20T04:16:55;7.93;;;5.38;;
68475;SDS011;55464;48.266;14.188;2023-12-20T04:19:20;7.97;;;5.20;;
68475;SDS011;55464;48.266;14.188;2023-12-20T04:21:46;6.15;;;4.72;;
68475;SDS011;55464;48.266;14.188;2023-12-20T04:24:11;7.68;;;5.47;;
68475;SDS011;55464;48.266;14.188;2023-12-20T04:26:37;9.73;;;5.28;;
68475;SDS011;55464;48.266;14.188;2023-12-20T04:29:02;8.13;;;5.70;;
68475;SDS011;55464;48.266;14.188;2023-12-20T04:31:27;7.40;;;5.65;;
68475;SDS011;55464;48.266;14.188;2023-12-20T04:33:53;11.00;;;6.70;;
68475;SDS011;55464;48.266;14.188;2023-12-20T04:36:18;5.45;;;4.53;;
68475;SDS011;55464;48.266;14.188;2023-12-20T04:38:44;8.32;;;5.60;;
68475;SDS011;55464;48.266;14.188;2023-12-20T04:41:09;7.60;;;5.60;;
68475;SDS011;55464;48.266;14.188;2023-12-20T04:43:35;13.82;;;6.68;;
68475;SDS011;55464;48.266;14.188;2023-12-20T04:46:00;11.80;;;7.20;;
68475;SDS011;55464;48.266;14.188;2023-12-20T04:48:25;8.68;;;6.60;;
68475;SDS011;55464;48.266;14.188;2023-12-20T04:50:51;10.93;;;6.70;;
68475;SDS011;55464;48.266;14.188;2023-12-20T04:53:16;9.68;;;6.47;;
68475;SDS011;55464;48.266;14.188;2023-12-20T04:55:41;10.43;;;6.95;;
68475;SDS011;55464;48.266;14.188;2023-12-20T04:58:07;10.63;;;6.32;;
68475;SDS011;55464;48.266;14.188;2023-12-20T05:00:32;12.38;;;6.80;;
68475;SDS011;55464;48.266;14.188;2023-12-20T05:02:58;6.47;;;5.82;;
68475;SDS011;55464;48.266;14.188;2023-12-20T05:05:23;7.28;;;5.57;;
68475;SDS011;55464;48.266;14.188;2023-12-20T05:07:49;9.18;;;5.80;;
68475;SDS011;55464;48.266;14.188;2023-12-20T05:10:14;10.27;;;6.63;;
68475;SDS011;55464;48.266;14.188;2023-12-20T05:12:40;7.15;;;5.55;;
68475;SDS011;55464;48.266;14.188;2023-12-20T05:15:05;7.55;;;6.18;;
68475;SDS011;55464;48.266;14.188;2023-12-20T05:17:32;9.70;;;5.57;;
68475;SDS011;55464;48.266;14.188;2023-12-20T05:19:57;9.60;;;6.07;;
68475;SDS011;55464;48.266;14.188;2023-12-20T05:22:22;8.98;;;6.40;;
68475;SDS011;55464;48.266;14.188;2023-12-20T05:24:48;11.57;;;6.60;;
68475;SDS011;55464;48.266;14.188;2023-12-20T05:27:14;9.40;;;5.90;;
68475;SDS011;55464;48.266;14.188;2023-12-20T05:29:39;9.85;;;5.35;;
68475;SDS011;55464;48.266;14.188;2023-12-20T05:32:05;8.55;;;5.80;;
68475;SDS011;55464;48.266;14.188;2023-12-20T05:34:30;9.20;;;6.20;;
68475;SDS011;55464;48.266;14.188;2023-12-20T05:36:57;9.63;;;6.40;;
68475;SDS011;55464;48.266;14.188;2023-12-20T05:39:22;10.40;;;6.28;;
68475;SDS011;55464;48.266;14.188;2023-12-20T05:41:48;8.70;;;6.50;;
68475;SDS011;55464;48.266;14.188;2023-12-20T05:44:13;9.43;;;6.15;;
68475;SDS011;55464;48.266;14.188;2023-12-20T05:46:39;8.00;;;5.95;;
68475;SDS011;55464;48.266;14.188;2023-12-20T05:49:05;8.45;;;6.60;;
68475;SDS011;55464;48.266;14.188;2023-12-20T05:51:31;9.38;;;6.50;;
68475;SDS011;55464;48.266;14.188;2023-12-20T05:53:56;8.25;;;6.28;;
68475;SDS011;55464;48.266;14.188;2023-12-20T05:56:21;12.85;;;7.15;;
68475;SDS011;55464;48.266;14.188;2023-12-20T05:58:47;5.93;;;4.70;;
68475;SDS011;55464;48.266;14.188;2023-12-20T06:01:14;7.10;;;4.88;;
68475;SDS011;55464;48.266;14.188;2023-12-20T06:03:43;10.70;;;6.25;;
68475;SDS011;55464;48.266;14.188;2023-12-20T06:06:08;10.38;;;6.30;;
68475;SDS011;55464;48.266;14.188;2023-12-20T06:08:34;10.07;;;5.85;;
68475;SDS011;55464;48.266;14.188;2023-12-20T06:10:59;8.48;;;6.35;;
68475;SDS011;55464;48.266;14.188;2023-12-20T06:13:25;8.68;;;6.05;;
68475;SDS011;55464;48.266;14.188;2023-12-20T06:15:50;9.13;;;5.70;;
68475;SDS011;55464;48.266;14.188;2023-12-20T06:18:16;9.10;;;4.93;;
68475;SDS011;55464;48.266;14.188;2023-12-20T06:20:42;7.88;;;5.20;;
68475;SDS011;55464;48.266;14.188;2023-12-20T06:23:07;8.13;;;5.32;;
68475;SDS011;55464;48.266;14.188;2023-12-20T06:25:33;7.05;;;5.10;;
68475;SDS011;55464;48.266;14.188;2023-12-20T06:27:58;7.68;;;4.97;;
68475;SDS011;55464;48.266;14.188;2023-12-20T06:30:24;7.75;;;5.35;;
68475;SDS011;55464;48.266;14.188;2023-12-20T06:32:50;9.63;;;6.07;;
68475;SDS011;55464;48.266;14.188;2023-12-20T06:35:16;9.48;;;5.68;;
68475;SDS011;55464;48.266;14.188;2023-12-20T06:37:41;8.07;;;5.63;;
68475;SDS011;55464;48.266;14.188;2023-12-20T06:40:08;7.57;;;5.38;;
68475;SDS011;55464;48.266;14.188;2023-12-20T06:42:35;9.75;;;5.20;;
68475;SDS011;55464;48.266;14.188;2023-12-20T06:45:00;12.23;;;6.22;;
68475;SDS011;55464;48.266;14.188;2023-12-20T06:47:26;7.57;;;5.60;;
68475;SDS011;55464;48.266;14.188;2023-12-20T06:49:51;9.23;;;6.15;;
68475;SDS011;55464;48.266;14.188;2023-12-20T06:52:17;8.23;;;6.05;;
68475;SDS011;55464;48.266;14.188;2023-12-20T06:54:42;10.88;;;6.10;;
68475;SDS011;55464;48.266;14.188;2023-12-20T06:57:08;10.93;;;6.25;;
68475;SDS011;55464;48.266;14.188;2023-12-20T06:59:38;11.38;;;7.18;;
68475;SDS011;55464;48.266;14.188;2023-12-20T07:02:06;15.18;;;7.25;;
68475;SDS011;55464;48.266;14.188;2023-12-20T07:04:33;9.85;;;7.30;;
68475;SDS011;55464;48.266;14.188;2023-12-20T07:06:59;8.73;;;6.95;;
68475;SDS011;55464;48.266;14.188;2023-12-20T07:09:25;9.52;;;7.15;;
68475;SDS011;55464;48.266;14.188;2023-12-20T07:11:51;8.80;;;6.80;;
68475;SDS011;55464;48.266;14.188;2023-12-20T07:14:17;9.40;;;6.50;;
68475;SDS011;55464;48.266;14.188;2023-12-20T07:16:43;9.90;;;7.28;;
68475;SDS011;55464;48.266;14.188;2023-12-20T07:19:08;8.32;;;5.75;;
68475;SDS011;55464;48.266;14.188;2023-12-20T07:21:34;8.52;;;5.60;;
68475;SDS011;55464;48.266;14.188;2023-12-20T07:23:59;8.15;;;5.63;;
68475;SDS011;55464;48.266;14.188;2023-12-20T07:26:24;6.10;;;4.65;;
68475;SDS011;55464;48.266;14.188;2023-12-20T07:28:50;10.48;;;5.20;;
68475;SDS011;55464;48.266;14.188;2023-12-20T07:31:15;8.32;;;5.00;;
68475;SDS011;55464;48.266;14.188;2023-12-20T07:33:41;8.18;;;5.15;;
68475;SDS011;55464;48.266;14.188;2023-12-20T07:36:07;5.88;;;4.05;;
68475;SDS011;55464;48.266;14.188;2023-12-20T07:38:32;5.25;;;3.67;;
68475;SDS011;55464;48.266;14.188;2023-12-20T07:40:58;6.57;;;3.58;;
68475;SDS011;55464;48.266;14.188;2023-12-20T07:43:24;5.20;;;3.70;;
68475;SDS011;55464;48.266;14.188;2023-12-20T07:45:49;5.38;;;3.33;;
68475;SDS011;55464;48.266;14.188;2023-12-20T07:48:15;4.15;;;2.90;;
68475;SDS011;55464;48.266;14.188;2023-12-20T07:50:40;4.85;;;2.88;;
68475;SDS011;55464;48.266;14.188;2023-12-20T07:53:07;5.05;;;2.50;;
68475;SDS011;55464;48.266;14.188;2023-12-20T07:55:32;3.78;;;2.70;;
68475;SDS011;55464;48.266;14.188;2023-12-20T07:57:58;2.63;;;1.92;;
68475;SDS011;55464;48.266;14.188;2023-12-20T08:00:24;2.13;;;1.90;;
68475;SDS011;55464;48.266;14.188;2023-12-20T08:02:49;5.45;;;2.53;;
68475;SDS011;55464;48.266;14.188;2023-12-20T08:05:14;2.35;;;1.63;;
68475;SDS011;55464;48.266;14.188;2023-12-20T08:07:40;2.38;;;2.03;;
68475;SDS011;55464;48.266;14.188;2023-12-20T08:10:05;4.65;;;2.13;;
68475;SDS011;55464;48.266;14.188;2023-12-20T08:12:31;2.08;;;1.83;;
68475;SDS011;55464;48.266;14.188;2023-12-20T08:14:57;2.53;;;1.90;;
68475;SDS011;55464;48.266;14.188;2023-12-20T08:17:22;3.13;;;1.80;;
68475;SDS011;55464;48.266;14.188;2023-12-20T08:19:48;2.95;;;2.20;;
68475;SDS011;55464;48.266;14.188;2023-12-20T08:22:14;4.18;;;1.88;;
68475;SDS011;55464;48.266;14.188;2023-12-20T08:24:39;3.17;;;2.17;;
68475;SDS011;55464;48.266;14.188;2023-12-20T08:27:05;2.58;;;2.08;;
68475;SDS011;55464;48.266;14.188;2023-12-20T08:29:30;3.13;;;2.25;;
68475;SDS011;55464;48.266;14.188;2023-12-20T08:31:56;2.30;;;2.10;;
68475;SDS011;55464;48.266;14.188;2023-12-20T08:34:22;3.33;;;1.92;;
68475;SDS011;55464;48.266;14.188;2023-12-20T08:36:48;4.45;;;2.00;;
68475;SDS011;55464;48.266;14.188;2023-12-20T08:39:16;3.78;;;2.30;;
68475;SDS011;55464;48.266;14.188;2023-12-20T08:41:41;2.53;;;1.98;;
68475;SDS011;55464;48.266;14.188;2023-12-20T08:44:07;5.45;;;2.67;;
68475;SDS011;55464;48.266;14.188;2023-12-20T08:46:32;2.90;;;2.28;;
68475;SDS011;55464;48.266;14.188;2023-12-20T08:48:58;2.60;;;2.40;;
68475;SDS011;55464;48.266;14.188;2023-12-20T08:51:23;2.50;;;2.05;;
68475;SDS011;55464;48.266;14.188;2023-12-20T08:53:50;2.53;;;2.30;;
68475;SDS011;55464;48.266;14.188;2023-12-20T08:56:16;4.20;;;2.38;;
68475;SDS011;55464;48.266;14.188;2023-12-20T08:58:43;2.60;;;2.40;;
68475;SDS011;55464;48.266;14.188;2023-12-20T09:01:08;4.47;;;2.20;;
68475;SDS011;55464;48.266;14.188;2023-12-20T09:03:34;3.38;;;2.30;;
68475;SDS011;55464;48.266;14.188;2023-12-20T09:05:59;4.20;;;2.72;;
68475;SDS011;55464;48.266;14.188;2023-12-20T09:08:25;3.72;;;2.58;;
68475;SDS011;55464;48.266;14.188;2023-12-20T09:10:50;3.75;;;2.80;;
68475;SDS011;55464;48.266;14.188;2023-12-20T09:13:16;3.55;;;2.47;;
68475;SDS011;55464;48.266;14.188;2023-12-20T09:15:41;3.63;;;2.63;;
68475;SDS011;55464;48.266;14.188;2023-12-20T09:18:07;4.80;;;2.90;;
68475;SDS011;55464;48.266;14.188;2023-12-20T09:20:33;3.58;;;3.03;;
68475;SDS011;55464;48.266;14.188;2023-12-20T09:22:59;4.88;;;3.50;;
68475;SDS011;55464;48.266;14.188;2023-12-20T09:25:24;4.78;;;3.28;;
68475;SDS011;55464;48.266;14.188;2023-12-20T09:27:51;4.95;;;4.03;;
68475;SDS011;55464;48.266;14.188;2023-12-20T09:30:19;3.78;;;3.35;;
68475;SDS011;55464;48.266;14.188;2023-12-20T09:32:45;3.70;;;2.90;;
68475;SDS011;55464;48.266;14.188;2023-12-20T09:35:11;6.93;;;4.10;;
68475;SDS011;55464;48.266;14.188;2023-12-20T09:37:36;3.75;;;3.30;;
68475;SDS011;55464;48.266;14.188;2023-12-20T09:40:02;4.03;;;3.22;;
68475;SDS011;55464;48.266;14.188;2023-12-20T09:42:39;4.05;;;3.20;;
68475;SDS011;55464;48.266;14.188;2023-12-20T09:47:35;4.03;;;3.05;;
68475;SDS011;55464;48.266;14.188;2023-12-20T09:50:01;4.50;;;3.63;;
68475;SDS011;55464;48.266;14.188;2023-12-20T09:52:27;5.53;;;3.63;;
68475;SDS011;55464;48.266;14.188;2023-12-20T09:54:54;4.53;;;3.35;;
68475;SDS011;55464;48.266;14.188;2023-12-20T09:57:22;4.82;;;2.80;;
68475;SDS011;55464;48.266;14.188;2023-12-20T09:59:47;4.13;;;2.80;;
68475;SDS011;55464;48.266;14.188;2023-12-20T10:02:13;3.22;;;2.92;;
68475;SDS011;55464;48.266;14.188;2023-12-20T10:04:48;4.17;;;2.90;;
68475;SDS011;55464;48.266;14.188;2023-12-20T10:07:13;2.70;;;2.50;;
68475;SDS011;55464;48.266;14.188;2023-12-20T10:09:39;3.63;;;2.72;;
68475;SDS011;55464;48.266;14.188;2023-12-20T10:12:05;3.75;;;2.95;;
68475;SDS011;55464;48.266;14.188;2023-12-20T10:14:32;3.28;;;2.95;;
68475;SDS011;55464;48.266;14.188;2023-12-20T10:17:04;2.60;;;2.40;;
68475;SDS011;55464;48.266;14.188;2023-12-20T10:19:31;2.80;;;2.50;;
68475;SDS011;55464;48.266;14.188;2023-12-20T10:21:57;2.90;;;2.70;;
68475;SDS011;55464;48.266;14.188;2023-12-20T10:24:29;2.80;;;2.30;;
68475;SDS011;55464;48.266;14.188;2023-12-20T10:27:00;2.83;;;2.45;;
68475;SDS011;55464;48.266;14.188;2023-12-20T10:29:33;2.90;;;2.63;;
68475;SDS011;55464;48.266;14.188;2023-12-20T10:32:00;2.53;;;2.28;;
68475;SDS011;55464;48.266;14.188;2023-12-20T10:34:46;3.53;;;2.78;;
68475;SDS011;55464;48.266;14.188;2023-12-20T10:37:13;3.40;;;2.83;;
68475;SDS011;55464;48.266;14.188;2023-12-20T10:39:39;2.63;;;2.13;;
68475;SDS011;55464;48.266;14.188;2023-12-20T10:42:06;3.47;;;2.53;;
68475;SDS011;55464;48.266;14.188;2023-12-20T10:44:33;4.15;;;2.42;;
68475;SDS011;55464;48.266;14.188;2023-12-20T10:46:59;2.75;;;2.50;;
68475;SDS011;55464;48.266;14.188;2023-12-20T10:49:25;2.50;;;2.30;;
68475;SDS011;55464;48.266;14.188;2023-12-20T10:51:52;3.40;;;2.70;;
68475;SDS011;55464;48.266;14.188;2023-12-20T10:54:19;4.15;;;2.30;;
68475;SDS011;55464;48.266;14.188;2023-12-20T10:56:45;3.15;;;2.75;;
68475;SDS011;55464;48.266;14.188;2023-12-20T10:59:11;5.72;;;2.50;;
68475;SDS011;55464;48.266;14.188;2023-12-20T11:01:40;3.88;;;2.15;;
68475;SDS011;55464;48.266;14.188;2023-12-20T11:04:07;2.67;;;2.08;;
68475;SDS011;55464;48.266;14.188;2023-12-20T11:06:40;2.17;;;1.92;;
68475;SDS011;55464;48.266;14.188;2023-12-20T11:19:35;2.30;;;2.00;;
68475;SDS011;55464;48.266;14.188;2023-12-20T11:22:03;2.22;;;2.03;;
68475;SDS011;55464;48.266;14.188;2023-12-20T11:24:29;2.50;;;2.00;;
68475;SDS011;55464;48.266;14.188;2023-12-20T11:26:57;3.28;;;1.98;;
68475;SDS011;55464;48.266;14.188;2023-12-20T11:29:29;2.38;;;2.17;;
68475;SDS011;55464;48.266;14.188;2023-12-20T11:31:56;1.98;;;1.88;;
68475;SDS011;55464;48.266;14.188;2023-12-20T11:34:21;1.88;;;1.70;;
68475;SDS011;55464;48.266;14.188;2023-12-20T11:36:46;1.75;;;1.65;;
68475;SDS011;55464;48.266;14.188;2023-12-20T11:39:12;1.20;;;1.17;;
68475;SDS011;55464;48.266;14.188;2023-12-20T11:41:46;4.20;;;1.30;;
68475;SDS011;55464;48.266;14.188;2023-12-20T11:44:12;1.50;;;1.40;;
68475;SDS011;55464;48.266;14.188;2023-12-20T11:46:38;1.35;;;1.10;;
68475;SDS011;55464;48.266;14.188;2023-12-20T11:49:04;1.75;;;1.30;;
68475;SDS011;55464;48.266;14.188;2023-12-20T11:51:29;1.50;;;1.30;;
68475;SDS011;55464;48.266;14.188;2023-12-20T11:53:55;1.30;;;1.20;;
68475;SDS011;55464;48.266;14.188;2023-12-20T11:56:20;1.50;;;1.40;;
68475;SDS011;55464;48.266;14.188;2023-12-20T11:58:46;1.58;;;1.48;;
68475;SDS011;55464;48.266;14.188;2023-12-20T12:01:11;1.30;;;1.20;;
68475;SDS011;55464;48.266;14.188;2023-12-20T12:03:37;1.17;;;1.13;;
68475;SDS011;55464;48.266;14.188;2023-12-20T12:06:02;1.30;;;1.20;;
68475;SDS011;55464;48.266;14.188;2023-12-20T12:08:29;1.55;;;1.45;;
68475;SDS011;55464;48.266;14.188;2023-12-20T12:10:55;2.42;;;1.40;;
68475;SDS011;55464;48.266;14.188;2023-12-20T12:13:21;1.55;;;1.42;;
68475;SDS011;55464;48.266;14.188;2023-12-20T12:15:47;1.50;;;1.40;;
68475;SDS011;55464;48.266;14.188;2023-12-20T12:18:15;1.88;;;1.65;;
68475;SDS011;55464;48.266;14.188;2023-12-20T12:20:41;1.50;;;1.40;;
68475;SDS011;55464;48.266;14.188;2023-12-20T12:23:07;2.10;;;1.52;;
68475;SDS011;55464;48.266;14.188;2023-12-20T12:25:33;1.42;;;1.33;;
68475;SDS011;55464;48.266;14.188;2023-12-20T12:28:02;1.67;;;1.58;;
68475;SDS011;55464;48.266;14.188;2023-12-20T12:30:28;1.75;;;1.65;;
68475;SDS011;55464;48.266;14.188;2023-12-20T12:32:53;1.58;;;1.48;;
68475;SDS011;55464;48.266;14.188;2023-12-20T12:35:21;2.13;;;1.80;;
68475;SDS011;55464;48.266;14.188;2023-12-20T12:37:47;1.58;;;1.48;;
68475;SDS011;55464;48.266;14.188;2023-12-20T12:40:13;1.50;;;1.40;;
68475;SDS011;55464;48.266;14.188;2023-12-20T12:42:39;1.38;;;1.27;;
68475;SDS011;55464;48.266;14.188;2023-12-20T12:45:06;1.20;;;1.10;;
68475;SDS011;55464;48.266;14.188;2023-12-20T12:47:33;1.67;;;1.58;;
68475;SDS011;55464;48.266;14.188;2023-12-20T12:49:59;1.70;;;1.33;;
68475;SDS011;55464;48.266;14.188;2023-12-20T12:52:24;1.10;;;1.08;;
68475;SDS011;55464;48.266;14.188;2023-12-20T12:54:51;1.27;;;1.17;;
68475;SDS011;55464;48.266;14.188;2023-12-20T12:57:17;1.98;;;1.40;;
68475;SDS011;55464;48.266;14.188;2023-12-20T12:59:43;1.55;;;1.45;;
68475;SDS011;55464;48.266;14.188;2023-12-20T13:02:12;1.80;;;1.70;;
68475;SDS011;55464;48.266;14.188;2023-12-20T13:04:38;2.50;;;1.80;;
68475;SDS011;55464;48.266;14.188;2023-12-20T13:07:04;2.03;;;1.73;;
68475;SDS011;55464;48.266;14.188;2023-12-20T13:09:30;2.53;;;1.77;;
68475;SDS011;55464;48.266;14.188;2023-12-20T13:11:57;3.65;;;1.95;;
68475;SDS011;55464;48.266;14.188;2023-12-20T13:14:22;2.30;;;1.83;;
68475;SDS011;55464;48.266;14.188;2023-12-20T13:16:48;2.63;;;1.85;;
68475;SDS011;55464;48.266;14.188;2023-12-20T13:19:13;2.70;;;2.20;;
68475;SDS011;55464;48.266;14.188;2023-12-20T13:21:40;2.42;;;2.20;;
68475;SDS011;55464;48.266;14.188;2023-12-20T13:24:05;2.28;;;2.08;;
68475;SDS011;55464;48.266;14.188;2023-12-20T13:26:31;3.05;;;2.00;;
68475;SDS011;55464;48.266;14.188;2023-12-20T13:28:57;2.30;;;2.10;;
68475;SDS011;55464;48.266;14.188;2023-12-20T13:31:23;4.70;;;2.17;;
68475;SDS011;55464;48.266;14.188;2023-12-20T13:33:49;2.75;;;1.95;;
68475;SDS011;55464;48.266;14.188;2023-12-20T13:36:14;2.00;;;1.77;;
68475;SDS011;55464;48.266;14.188;2023-12-20T13:38:40;3.45;;;2.17;;
68475;SDS011;55464;48.266;14.188;2023-12-20T13:41:05;2.25;;;2.05;;
68475;SDS011;55464;48.266;14.188;2023-12-20T13:43:31;2.20;;;2.00;;
68475;SDS011;55464;48.266;14.188;2023-12-20T13:45:57;2.63;;;2.05;;
68475;SDS011;55464;48.266;14.188;2023-12-20T13:48:24;1.88;;;1.75;;
68475;SDS011;55464;48.266;14.188;2023-12-20T13:50:49;2.55;;;2.30;;
68475;SDS011;55464;48.266;14.188;2023-12-20T13:53:14;2.72;;;1.80;;
68475;SDS011;55464;48.266;14.188;2023-12-20T13:55:40;2.05;;;1.95;;
68475;SDS011;55464;48.266;14.188;2023-12-20T13:58:06;1.67;;;1.58;;
68475;SDS011;55464;48.266;14.188;2023-12-20T14:00:31;3.55;;;1.80;;
68475;SDS011;55464;48.266;14.188;2023-12-20T14:02:56;1.80;;;1.70;;
68475;SDS011;55464;48.266;14.188;2023-12-20T14:05:23;2.08;;;1.90;;
68475;SDS011;55464;48.266;14.188;2023-12-20T14:07:48;2.22;;;2.05;;
68475;SDS011;55464;48.266;14.188;2023-12-20T14:10:16;2.25;;;2.00;;
68475;SDS011;55464;48.266;14.188;2023-12-20T14:12:41;6.05;;;1.98;;
68475;SDS011;55464;48.266;14.188;2023-12-20T14:15:07;2.03;;;1.88;;
68475;SDS011;55464;48.266;14.188;2023-12-20T14:17:39;4.90;;;1.90;;
68475;SDS011;55464;48.266;14.188;2023-12-20T14:20:07;2.25;;;2.08;;
68475;SDS011;55464;48.266;14.188;2023-12-20T14:22:33;2.63;;;2.20;;
68475;SDS011;55464;48.266;14.188;2023-12-20T14:24:59;2.75;;;2.55;;
68475;SDS011;55464;48.266;14.188;2023-12-20T14:27:24;2.95;;;2.40;;
68475;SDS011;55464;48.266;14.188;2023-12-20T14:29:52;3.00;;;1.90;;
68475;SDS011;55464;48.266;14.188;2023-12-20T14:32:18;3.30;;;2.50;;
68475;SDS011;55464;48.266;14.188;2023-12-20T14:34:44;2.60;;;2.40;;
68475;SDS011;55464;48.266;14.188;2023-12-20T14:37:09;3.22;;;2.10;;
68475;SDS011;55464;48.266;14.188;2023-12-20T14:39:35;2.38;;;2.15;;